createdAt,value
2019-01-25T00:02:55.239Z,-5.40
2019-01-25T00:07:57.769Z,-5.50
2019-01-25T00:13:00.354Z,-5.50
2019-01-25T00:18:04.022Z,-5.40
2019-01-25T00:23:06.543Z,-5.40
2019-01-25T00:28:09.081Z,-5.40
2019-01-25T00:33:11.791Z,-5.40
2019-01-25T00:38:14.245Z,-5.40
2019-01-25T00:43:16.781Z,-5.40
2019-01-25T00:48:19.329Z,-5.40
2019-01-25T00:53:21.913Z,-5.30
2019-01-25T00:58:24.452Z,-5.40
2019-01-25T01:03:26.998Z,-5.40
2019-01-25T01:08:29.574Z,-5.40
2019-01-25T01:13:34.855Z,-5.40
2019-01-25T01:18:37.401Z,-5.40
2019-01-25T01:23:39.922Z,-5.40
2019-01-25T01:28:42.461Z,-5.50
2019-01-25T01:33:44.985Z,-5.50
2019-01-25T01:38:47.556Z,-5.60
2019-01-25T01:43:50.122Z,-5.70
2019-01-25T01:48:53.065Z,-5.60
2019-01-25T01:53:55.596Z,-5.50
2019-01-25T01:58:58.140Z,-5.60
2019-01-25T02:04:00.694Z,-5.60
2019-01-25T02:09:06.220Z,-5.70
2019-01-25T02:14:08.749Z,-5.70
2019-01-25T02:19:11.292Z,-5.70
2019-01-25T02:24:13.812Z,-5.70
2019-01-25T02:29:16.352Z,-5.70
2019-01-25T02:34:18.887Z,-5.70
2019-01-25T02:39:21.408Z,-5.70
2019-01-25T02:44:25.144Z,-5.70
2019-01-25T02:49:27.684Z,-5.60
2019-01-25T02:54:30.211Z,-5.70
2019-01-25T02:59:32.741Z,-5.70
2019-01-25T03:04:35.269Z,-5.60
2019-01-25T03:09:37.834Z,-5.60
2019-01-25T03:14:40.385Z,-5.50
2019-01-25T03:19:42.920Z,-5.50
2019-01-25T03:24:45.454Z,-5.50
2019-01-25T03:29:47.995Z,-5.50
2019-01-25T03:34:50.584Z,-5.60
2019-01-25T03:39:53.117Z,-5.70
2019-01-25T03:44:55.662Z,-5.60
2019-01-25T03:49:58.198Z,-5.60
2019-01-25T03:55:00.791Z,-5.50
2019-01-25T04:00:05.714Z,-5.40
2019-01-25T04:05:09.493Z,-5.40
2019-01-25T04:10:14.660Z,-5.40
2019-01-25T04:15:20.948Z,-5.50
2019-01-25T04:20:43.037Z,-5.50
2019-01-25T04:25:45.564Z,-5.50
2019-01-25T04:30:48.109Z,-5.50
2019-01-25T04:35:51.259Z,-5.60
2019-01-25T04:40:53.801Z,-5.60
2019-01-25T04:45:56.312Z,-5.70
2019-01-25T04:56:19.333Z,-5.60
2019-01-25T05:01:24.377Z,-5.50
2019-01-25T05:06:29.472Z,-5.40
2019-01-25T05:11:34.521Z,-5.40
2019-01-25T05:16:39.537Z,-5.40
2019-01-25T05:21:44.571Z,-5.40
2019-01-25T05:26:51.098Z,-5.40
2019-01-25T05:31:56.124Z,-5.30
2019-01-25T05:37:01.163Z,-5.30
2019-01-25T05:42:06.491Z,-5.30
2019-01-25T05:47:12.444Z,-5.30
2019-01-25T05:52:19.749Z,-5.30
2019-01-25T05:57:24.833Z,-5.30
2019-01-25T06:02:30.112Z,-5.20
2019-01-25T06:07:35.209Z,-5.30
2019-01-25T06:12:40.218Z,-5.30
2019-01-25T06:17:45.257Z,-5.30
2019-01-25T06:22:54.952Z,-5.30
2019-01-25T06:27:59.977Z,-5.30
2019-01-25T06:33:05.293Z,-5.40
2019-01-25T06:38:10.345Z,-5.40
2019-01-25T06:43:17.148Z,-5.40
2019-01-25T06:48:22.377Z,-5.40
2019-01-25T06:53:27.420Z,-5.40
2019-01-25T06:58:46.865Z,-5.40
2019-01-25T07:03:51.892Z,-5.40
2019-01-25T07:08:56.957Z,-5.50
2019-01-25T07:14:02.023Z,-5.60
2019-01-25T07:19:07.086Z,-5.60
2019-01-25T07:24:12.126Z,-5.60
2019-01-25T07:29:17.129Z,-5.60
2019-01-25T07:34:22.155Z,-5.50
2019-01-25T07:39:29.908Z,-5.40
2019-01-25T07:44:35.476Z,-5.40
2019-01-25T07:49:40.496Z,-5.30
2019-01-25T07:54:45.547Z,-5.30
2019-01-25T07:59:50.544Z,-5.20
2019-01-25T08:04:55.692Z,-5.10
2019-01-25T08:10:01.077Z,-5.10
2019-01-25T08:15:08.552Z,-5.00
2019-01-25T08:20:13.888Z,-5.00
2019-01-25T08:25:19.353Z,-5.00
2019-01-25T08:30:24.581Z,-5.00
2019-01-25T08:35:29.628Z,-5.00
2019-01-25T08:40:35.391Z,-5.00
2019-01-25T08:45:40.416Z,-4.90
2019-01-25T08:50:45.702Z,-4.80
2019-01-25T08:55:50.713Z,-4.80
2019-01-25T09:00:55.774Z,-4.70
2019-01-25T09:06:00.817Z,-4.60
2019-01-25T09:11:06.090Z,-4.40
2019-01-25T09:16:13.252Z,-4.30
2019-01-25T09:21:18.251Z,-4.30
2019-01-25T09:26:23.272Z,-4.30
2019-01-25T09:31:28.306Z,-4.30
2019-01-25T09:36:33.332Z,-4.20
2019-01-25T09:41:39.538Z,-4.20
2019-01-25T09:46:45.063Z,-4.20
2019-01-25T09:51:50.138Z,-3.90
2019-01-25T09:56:55.534Z,-3.70
2019-01-25T10:02:00.577Z,-3.50
2019-01-25T10:07:05.601Z,-3.50
2019-01-25T10:12:10.676Z,-3.50
2019-01-25T10:17:15.706Z,-3.30
2019-01-25T10:22:20.733Z,-3.40
2019-01-25T10:27:25.777Z,-3.40
2019-01-25T10:32:30.842Z,-3.30
2019-01-25T10:37:35.881Z,-3.30
2019-01-25T10:42:45.449Z,-3.30
2019-01-25T10:47:47.560Z,-3.30
2019-01-25T10:52:52.602Z,-3.30
2019-01-25T10:57:57.924Z,-3.20
2019-01-25T11:03:03.267Z,-3.20
2019-01-25T11:08:08.343Z,-3.00
2019-01-25T11:13:13.360Z,-3.00
2019-01-25T11:18:18.395Z,-3.10
2019-01-25T11:23:23.400Z,-3.10
2019-01-25T11:28:28.680Z,-2.70
2019-01-25T11:33:33.694Z,-2.40
2019-01-25T11:38:38.788Z,-2.40
2019-01-25T11:43:43.817Z,-2.30
2019-01-25T11:48:48.852Z,-2.20
2019-01-25T11:53:53.904Z,-2.30
2019-01-25T11:58:58.913Z,-2.20
2019-01-25T12:04:04.240Z,-2.20
2019-01-25T12:09:10.382Z,-2.20
2019-01-25T12:14:15.421Z,-2.20
2019-01-25T12:19:20.445Z,-2.10
2019-01-25T12:24:26.415Z,-2.00
2019-01-25T12:29:31.779Z,-1.80
2019-01-25T12:34:37.074Z,-1.90
2019-01-25T12:39:42.091Z,-2.10
2019-01-25T12:44:47.134Z,-2.20
2019-01-25T12:49:52.186Z,-2.10
2019-01-25T12:54:57.231Z,-2.10
2019-01-25T13:00:02.323Z,-1.90
2019-01-25T13:05:09.298Z,-1.90
2019-01-25T13:10:15.861Z,-1.70
2019-01-25T13:15:21.125Z,-1.60
2019-01-25T13:20:27.248Z,-1.70
2019-01-25T13:25:32.301Z,-1.70
2019-01-25T13:30:37.414Z,-1.70
2019-01-25T13:35:42.465Z,-1.70
2019-01-25T13:40:47.506Z,-1.70
2019-01-25T13:45:52.610Z,-1.80
2019-01-25T13:50:57.853Z,-2.00
2019-01-25T13:56:02.878Z,-2.10
2019-01-25T14:01:07.932Z,-2.10
2019-01-25T14:06:12.961Z,-2.10
2019-01-25T14:11:18.035Z,-2.20
2019-01-25T14:16:23.096Z,-2.20
2019-01-25T14:21:28.192Z,-2.30
2019-01-25T14:26:34.123Z,-2.40
2019-01-25T14:31:39.526Z,-2.40
2019-01-25T14:36:44.562Z,-2.40
2019-01-25T14:41:49.609Z,-2.40
2019-01-25T14:46:54.625Z,-2.50
2019-01-25T14:51:59.633Z,-2.50
2019-01-25T14:57:04.970Z,-2.50
2019-01-25T15:02:10.152Z,-2.50
2019-01-25T15:07:16.641Z,-2.50
2019-01-25T15:12:21.706Z,-2.50
2019-01-25T15:17:26.770Z,-2.50
2019-01-25T15:22:31.787Z,-2.60
2019-01-25T15:27:37.031Z,-2.60
2019-01-25T15:32:42.038Z,-2.60
2019-01-25T15:37:47.034Z,-2.50
2019-01-25T15:42:52.207Z,-2.50
2019-01-25T15:47:57.191Z,-2.50
2019-01-25T15:53:02.191Z,-2.50
2019-01-25T15:58:07.194Z,-2.50
2019-01-25T16:03:12.171Z,-2.50
2019-01-25T16:08:17.179Z,-2.50
2019-01-25T16:13:22.223Z,-2.40
2019-01-25T16:18:27.191Z,-2.40
2019-01-25T16:23:32.170Z,-2.40
2019-01-25T16:28:37.159Z,-2.40
2019-01-25T16:33:43.348Z,-2.30
2019-01-25T16:38:48.387Z,-2.20
2019-01-25T16:43:53.384Z,-2.20
2019-01-25T16:48:58.497Z,-2.20
2019-01-25T16:54:03.467Z,-2.20
2019-01-25T16:59:08.633Z,-2.20
2019-01-25T17:04:13.646Z,-2.10
2019-01-25T17:09:18.617Z,-2.00
2019-01-25T17:14:23.632Z,-2.00
2019-01-25T17:19:28.637Z,-2.00
2019-01-25T17:24:33.795Z,-1.90
2019-01-25T17:29:38.763Z,-1.90
2019-01-25T17:34:43.739Z,-1.80
2019-01-25T17:39:49.019Z,-1.60
2019-01-25T17:44:54.024Z,-1.50
2019-01-25T17:49:59.143Z,-1.20
2019-01-25T17:55:04.931Z,-1.10
2019-01-25T18:00:14.556Z,-1.00
2019-01-25T18:05:19.530Z,-0.80
2019-01-25T18:10:24.955Z,-0.60
2019-01-25T18:15:29.955Z,-0.40
2019-01-25T18:20:34.939Z,-0.40
2019-01-25T18:25:55.535Z,-0.20
2019-01-25T18:31:11.031Z,-0.20
2019-01-25T18:36:16.017Z,-0.10
2019-01-25T18:41:21.049Z,0.00
2019-01-25T18:46:26.045Z,0.00
2019-01-25T18:51:31.050Z,0.00
2019-01-25T18:56:36.630Z,0.10
2019-01-25T19:01:43.196Z,0.20
2019-01-25T19:06:48.176Z,0.20
2019-01-25T19:11:53.406Z,0.20
2019-01-25T19:16:58.409Z,0.30
2019-01-25T19:22:03.795Z,0.40
2019-01-25T19:27:09.083Z,0.40
2019-01-25T19:32:15.104Z,0.50
2019-01-25T19:37:20.074Z,0.50
2019-01-25T19:42:25.056Z,0.40
2019-01-25T19:47:30.119Z,0.50
2019-01-25T19:52:35.163Z,0.50
2019-01-25T19:57:40.496Z,0.70
2019-01-25T20:02:46.094Z,0.70
2019-01-25T20:07:51.078Z,0.80
2019-01-25T20:12:56.383Z,0.90
2019-01-25T20:18:01.702Z,0.90
2019-01-25T20:23:06.802Z,0.90
2019-01-25T20:28:12.289Z,1.00
2019-01-25T20:33:17.292Z,1.00
2019-01-25T20:38:22.247Z,1.10
2019-01-25T20:43:27.227Z,1.10
2019-01-25T20:48:32.204Z,1.10
2019-01-25T20:53:37.657Z,1.20
2019-01-25T20:58:42.607Z,1.20
2019-01-25T21:03:47.606Z,1.20
2019-01-25T21:08:52.582Z,1.30
2019-01-25T21:13:57.595Z,1.40
2019-01-25T21:19:02.615Z,1.40
2019-01-25T21:24:07.611Z,1.50
2019-01-25T21:29:12.648Z,1.50
2019-01-25T21:34:17.607Z,1.60
2019-01-25T21:39:22.599Z,1.70
2019-01-25T21:44:27.560Z,2.00
2019-01-25T21:49:32.830Z,2.00
2019-01-25T21:54:37.891Z,2.00
2019-01-25T21:59:42.899Z,2.10
2019-01-25T22:04:47.882Z,2.10
2019-01-25T22:09:52.879Z,2.10
2019-01-25T22:14:57.902Z,2.10
2019-01-25T22:20:02.898Z,2.20
2019-01-25T22:25:08.844Z,2.20
2019-01-25T22:30:16.162Z,2.20
2019-01-25T22:35:21.550Z,2.20
2019-01-25T22:40:28.465Z,2.20
2019-01-25T22:45:33.541Z,2.20
2019-01-25T22:50:38.768Z,2.20
2019-01-25T22:55:43.762Z,2.20
2019-01-25T23:01:11.988Z,2.30
2019-01-25T23:06:35.536Z,2.50
2019-01-25T23:11:42.538Z,2.60
2019-01-25T23:16:47.586Z,2.70
2019-01-25T23:21:52.565Z,2.70
2019-01-25T23:26:57.708Z,2.70
2019-01-25T23:32:02.691Z,2.70
2019-01-25T23:37:09.261Z,2.60
2019-01-25T23:42:25.066Z,2.60
2019-01-25T23:47:34.053Z,2.50
2019-01-25T23:52:41.421Z,2.50
2019-01-25T23:57:47.219Z,2.50
